KINJ

Hillsboro Municipal Airport

Hillsboro, Texas, USA
METAR KINJ 180155Z AUTO 13004KT 10SM CLR 32/18 A2999 RMK AO2 T03150181
Observed Flight Rules
Aug-18 @ 01:55 UTC (34 minutes ago) Visual Flight Rules
Wind Visibility Clouds
130° at 4 knots 10 miles
  • Clear skies
Temperatures Readings
Current 32°C / 90°F
Dewpoint 18°C / 64°F
Humidity 43%
Altimeter 29.99" Hg
Pressure 1016 hPa
Elevation 209
METAR KINJ 180155Z AUTO 13004KT 10SM CLR 32/18 A2999 RMK AO2 T03150181
Observed Flight Rules
Aug-18 @ 01:55 UTC
(34 minutes ago)
VFR
Wind Visibility
130° at 4 knots 10 miles
Clouds
  • Clear skies
Temperature Dewpoint
32°C / 90°F 18°C / 64°F
Humidity Altimeter Pressure
43% 29.99" Hg 1016 hPa